If you wish to contribute or participate in the discussions about articles you are invited to join SKYbrary as a registered user

 Actions

Metz-Nancy-Lorraine Airport

From SKYbrary Wiki

LFJL
Airport
ICAO: LFJL – IATA: ETZ
Summary
Name Metz-Nancy-Lorraine Airport
Region Europe
Territory France FR.gif
Location , Lorraine
Serving Metz
Elevation 265.176 m
870 ft
870 ft265.176 m
Type medium airport
Coordinates 48° 58' 55.71" N, 6° 15' 4.75" E
Runways
Designator Length Width Surface ROPS
4/22 2500 m8,202.1 ft
45 m147.638 ft
ASP yes/yes


METAR
Observation LFJL 212130Z AUTO 02004KT CAVOK 13/08 Q1018 NOSIG
Station Metz-Nancy-Lorraine
Date/Time 21 May 2019 21:30:00
Wind direction 20°
Wind speed 04 kts
Lowest cloud amount clouds and visibility OK
Temperature 13°C
Dew point 8°C
Humidity 71%
QNH 1018 hPa
Weather condition n/a